sensor_id;sensor_type;location;lat;lon;timestamp;pressure;altitude;pressure_sealevel;temperature;humidity
71795;BME280;59641;45.188;5.712;2022-11-13T00:01:11;100124.06;;;13.92;63.57
71795;BME280;59641;45.188;5.712;2022-11-13T00:03:37;100128.63;;;13.91;63.53
71795;BME280;59641;45.188;5.712;2022-11-13T00:06:13;100118.28;;;13.88;63.85
71795;BME280;59641;45.188;5.712;2022-11-13T00:15:55;100114.22;;;13.79;64.01
71795;BME280;59641;45.188;5.712;2022-11-13T00:18:21;100114.22;;;13.79;63.60
71795;BME280;59641;45.188;5.712;2022-11-13T00:20:46;100112.34;;;13.79;63.87
71795;BME280;59641;45.188;5.712;2022-11-13T00:23:12;100110.47;;;13.80;63.85
71795;BME280;59641;45.188;5.712;2022-11-13T00:25:48;100107.78;;;13.80;63.34
71795;BME280;59641;45.188;5.712;2022-11-13T00:28:18;100119.84;;;13.77;63.65
71795;BME280;59641;45.188;5.712;2022-11-13T00:30:50;100110.53;;;13.73;64.43
71795;BME280;59641;45.188;5.712;2022-11-13T00:33:29;100110.78;;;13.72;63.92
71795;BME280;59641;45.188;5.712;2022-11-13T00:39:18;100097.75;;;13.69;64.39
71795;BME280;59641;45.188;5.712;2022-11-13T00:41:45;100094.59;;;13.72;63.99
71795;BME280;59641;45.188;5.712;2022-11-13T00:44:21;100094.34;;;13.73;63.96
71795;BME280;59641;45.188;5.712;2022-11-13T00:46:51;100101.19;;;13.76;64.41
71795;BME280;59641;45.188;5.712;2022-11-13T00:55:43;100090.00;;;13.72;64.32
71795;BME280;59641;45.188;5.712;2022-11-13T00:58:12;100082.78;;;13.66;64.13
71795;BME280;59641;45.188;5.712;2022-11-13T01:00:39;100077.50;;;13.59;64.51
71795;BME280;59641;45.188;5.712;2022-11-13T01:03:05;100074.63;;;13.54;64.68
71795;BME280;59641;45.188;5.712;2022-11-13T01:05:34;100065.53;;;13.49;64.77
71795;BME280;59641;45.188;5.712;2022-11-13T01:08:00;100070.56;;;13.45;64.94
71795;BME280;59641;45.188;5.712;2022-11-13T01:10:25;100075.34;;;13.43;64.63
71795;BME280;59641;45.188;5.712;2022-11-13T01:12:51;100077.66;;;13.39;65.12
71795;BME280;59641;45.188;5.712;2022-11-13T01:15:16;100072.50;;;13.38;64.78
71795;BME280;59641;45.188;5.712;2022-11-13T01:17:42;100075.41;;;13.36;64.99
71795;BME280;59641;45.188;5.712;2022-11-13T01:20:09;100075.56;;;13.41;65.11
71795;BME280;59641;45.188;5.712;2022-11-13T01:22:34;100080.75;;;13.43;64.65
71795;BME280;59641;45.188;5.712;2022-11-13T01:25:00;100071.00;;;13.42;64.54
71795;BME280;59641;45.188;5.712;2022-11-13T01:27:25;100074.53;;;13.42;64.30
71795;BME280;59641;45.188;5.712;2022-11-13T01:29:51;100072.88;;;13.41;64.92
71795;BME280;59641;45.188;5.712;2022-11-13T01:32:16;100060.22;;;13.42;64.54
71795;BME280;59641;45.188;5.712;2022-11-13T01:34:41;100058.97;;;13.45;64.49
71795;BME280;59641;45.188;5.712;2022-11-13T01:37:07;100049.22;;;13.43;64.84
71795;BME280;59641;45.188;5.712;2022-11-13T01:39:32;100048.75;;;13.47;64.26
71795;BME280;59641;45.188;5.712;2022-11-13T01:41:58;100047.34;;;13.44;64.42
71795;BME280;59641;45.188;5.712;2022-11-13T01:44:23;100049.44;;;13.42;64.44
71795;BME280;59641;45.188;5.712;2022-11-13T01:46:53;100040.38;;;13.36;64.26
71795;BME280;59641;45.188;5.712;2022-11-13T01:49:30;100034.22;;;13.29;64.35
71795;BME280;59641;45.188;5.712;2022-11-13T01:51:59;100026.38;;;13.21;65.02
71795;BME280;59641;45.188;5.712;2022-11-13T01:54:32;100025.38;;;13.15;64.68
71795;BME280;59641;45.188;5.712;2022-11-13T01:56:58;100020.69;;;13.11;64.87
71795;BME280;59641;45.188;5.712;2022-11-13T01:59:49;100015.94;;;13.06;65.33
71795;BME280;59641;45.188;5.712;2022-11-13T02:02:15;100016.16;;;13.05;65.00
71795;BME280;59641;45.188;5.712;2022-11-13T02:04:41;100016.75;;;13.07;64.85
71795;BME280;59641;45.188;5.712;2022-11-13T02:07:09;100010.97;;;13.03;65.26
71795;BME280;59641;45.188;5.712;2022-11-13T02:09:38;100012.63;;;13.04;65.01
71795;BME280;59641;45.188;5.712;2022-11-13T02:12:06;100019.66;;;13.05;65.07
71795;BME280;59641;45.188;5.712;2022-11-13T02:14:35;100012.03;;;13.02;64.99
71795;BME280;59641;45.188;5.712;2022-11-13T02:17:05;100021.53;;;13.05;65.20
71795;BME280;59641;45.188;5.712;2022-11-13T02:19:35;100013.66;;;13.03;65.12
71795;BME280;59641;45.188;5.712;2022-11-13T02:22:21;100002.91;;;13.03;65.01
71795;BME280;59641;45.188;5.712;2022-11-13T02:24:51;100000.81;;;13.05;65.09
71795;BME280;59641;45.188;5.712;2022-11-13T02:27:25;100000.19;;;13.03;65.12
71795;BME280;59641;45.188;5.712;2022-11-13T02:29:52;99993.63;;;12.99;64.94
71795;BME280;59641;45.188;5.712;2022-11-13T02:32:17;99994.88;;;12.96;64.40
71795;BME280;59641;45.188;5.712;2022-11-13T02:34:43;100000.50;;;12.95;64.63
71795;BME280;59641;45.188;5.712;2022-11-13T02:37:09;99991.19;;;12.91;64.86
71795;BME280;59641;45.188;5.712;2022-11-13T02:39:35;99983.91;;;12.91;64.70
71795;BME280;59641;45.188;5.712;2022-11-13T02:42:01;99992.63;;;12.93;64.88
71795;BME280;59641;45.188;5.712;2022-11-13T02:44:27;100000.69;;;12.93;64.80
71795;BME280;59641;45.188;5.712;2022-11-13T02:46:53;99997.19;;;12.93;64.91
71795;BME280;59641;45.188;5.712;2022-11-13T02:49:19;99994.69;;;12.91;64.77
71795;BME280;59641;45.188;5.712;2022-11-13T02:51:44;99996.81;;;12.89;64.73
71795;BME280;59641;45.188;5.712;2022-11-13T02:54:10;99984.00;;;12.85;64.61
71795;BME280;59641;45.188;5.712;2022-11-13T02:56:35;99983.41;;;12.83;64.50
71795;BME280;59641;45.188;5.712;2022-11-13T02:59:00;99980.75;;;12.76;64.86
71795;BME280;59641;45.188;5.712;2022-11-13T03:01:26;99980.38;;;12.72;64.80
71795;BME280;59641;45.188;5.712;2022-11-13T03:03:53;99976.47;;;12.68;64.85
71795;BME280;59641;45.188;5.712;2022-11-13T03:06:19;99969.63;;;12.66;64.89
71795;BME280;59641;45.188;5.712;2022-11-13T03:08:45;99973.59;;;12.63;64.79
71795;BME280;59641;45.188;5.712;2022-11-13T03:11:10;99967.59;;;12.61;64.54
71795;BME280;59641;45.188;5.712;2022-11-13T03:13:36;99973.81;;;12.62;65.22
71795;BME280;59641;45.188;5.712;2022-11-13T03:16:07;99978.56;;;12.60;65.33
71795;BME280;59641;45.188;5.712;2022-11-13T03:18:33;99985.03;;;12.58;65.55
71795;BME280;59641;45.188;5.712;2022-11-13T03:21:05;99993.31;;;12.57;65.48
71795;BME280;59641;45.188;5.712;2022-11-13T03:23:54;99991.44;;;12.57;65.23
71795;BME280;59641;45.188;5.712;2022-11-13T03:26:21;99986.28;;;12.56;65.37
71795;BME280;59641;45.188;5.712;2022-11-13T03:28:51;99986.03;;;12.57;65.20
71795;BME280;59641;45.188;5.712;2022-11-13T03:31:21;99972.00;;;12.55;65.42
71795;BME280;59641;45.188;5.712;2022-11-13T03:33:56;99964.31;;;12.59;65.38
71795;BME280;59641;45.188;5.712;2022-11-13T03:36:38;99956.84;;;12.61;65.32
71795;BME280;59641;45.188;5.712;2022-11-13T03:42:02;99960.63;;;12.53;65.70
71795;BME280;59641;45.188;5.712;2022-11-13T03:44:28;99968.91;;;12.52;65.67
71795;BME280;59641;45.188;5.712;2022-11-13T03:46:54;99962.69;;;12.51;65.63
71795;BME280;59641;45.188;5.712;2022-11-13T03:49:20;99959.41;;;12.49;65.50
71795;BME280;59641;45.188;5.712;2022-11-13T03:51:52;99949.69;;;12.48;65.78
71795;BME280;59641;45.188;5.712;2022-11-13T03:54:24;99948.22;;;12.46;65.76
71795;BME280;59641;45.188;5.712;2022-11-13T03:56:50;99941.22;;;12.45;65.80
71795;BME280;59641;45.188;5.712;2022-11-13T03:59:22;99942.03;;;12.45;65.70
71795;BME280;59641;45.188;5.712;2022-11-13T04:02:02;99938.91;;;12.48;65.83
71795;BME280;59641;45.188;5.712;2022-11-13T04:04:35;99934.97;;;12.51;65.73
71795;BME280;59641;45.188;5.712;2022-11-13T04:07:04;99940.13;;;12.52;65.33
71795;BME280;59641;45.188;5.712;2022-11-13T04:09:37;99931.22;;;12.52;65.17
71795;BME280;59641;45.188;5.712;2022-11-13T04:12:04;99934.34;;;12.49;65.50
71795;BME280;59641;45.188;5.712;2022-11-13T04:14:49;99930.44;;;12.45;65.20
71795;BME280;59641;45.188;5.712;2022-11-13T04:17:16;99921.16;;;12.41;65.35
71795;BME280;59641;45.188;5.712;2022-11-13T04:19:45;99919.09;;;12.36;65.42
71795;BME280;59641;45.188;5.712;2022-11-13T04:22:10;99919.78;;;12.31;65.96
71795;BME280;59641;45.188;5.712;2022-11-13T04:24:36;99921.63;;;12.31;65.83
71795;BME280;59641;45.188;5.712;2022-11-13T04:27:01;99920.38;;;12.33;65.70
71795;BME280;59641;45.188;5.712;2022-11-13T04:29:27;99919.09;;;12.36;65.96
71795;BME280;59641;45.188;5.712;2022-11-13T04:31:52;99914.94;;;12.40;65.81
71795;BME280;59641;45.188;5.712;2022-11-13T04:34:17;99919.06;;;12.43;65.47
71795;BME280;59641;45.188;5.712;2022-11-13T04:36:43;99916.78;;;12.46;65.53
71795;BME280;59641;45.188;5.712;2022-11-13T04:39:08;99910.94;;;12.49;65.35
71795;BME280;59641;45.188;5.712;2022-11-13T04:41:34;99906.63;;;12.48;65.27
71795;BME280;59641;45.188;5.712;2022-11-13T04:44:18;99901.44;;;12.47;65.36
71795;BME280;59641;45.188;5.712;2022-11-13T04:46:43;99912.00;;;12.48;65.07
71795;BME280;59641;45.188;5.712;2022-11-13T04:49:09;99910.34;;;12.47;65.76
71795;BME280;59641;45.188;5.712;2022-11-13T04:51:34;99906.63;;;12.48;65.35
71795;BME280;59641;45.188;5.712;2022-11-13T04:54:00;99895.00;;;12.48;65.22
71795;BME280;59641;45.188;5.712;2022-11-13T04:56:25;99900.63;;;12.46;65.68
71795;BME280;59641;45.188;5.712;2022-11-13T04:58:51;99897.69;;;12.48;65.52
71795;BME280;59641;45.188;5.712;2022-11-13T05:01:16;99900.84;;;12.45;65.33
71795;BME280;59641;45.188;5.712;2022-11-13T05:03:41;99895.25;;;12.46;65.49
71795;BME280;59641;45.188;5.712;2022-11-13T05:06:08;99894.41;;;12.46;65.74
71795;BME280;59641;45.188;5.712;2022-11-13T05:08:34;99895.44;;;12.45;65.40
71795;BME280;59641;45.188;5.712;2022-11-13T05:11:00;99890.28;;;12.43;65.58
71795;BME280;59641;45.188;5.712;2022-11-13T05:13:32;99892.97;;;12.43;65.63
71795;BME280;59641;45.188;5.712;2022-11-13T05:16:07;99893.22;;;12.42;65.51
71795;BME280;59641;45.188;5.712;2022-11-13T05:18:34;99882.66;;;12.40;65.59
71795;BME280;59641;45.188;5.712;2022-11-13T05:21:03;99876.66;;;12.38;65.44
71795;BME280;59641;45.188;5.712;2022-11-13T05:26:37;99863.19;;;12.38;66.02
71795;BME280;59641;45.188;5.712;2022-11-13T05:29:16;99865.84;;;12.45;65.91
71795;BME280;59641;45.188;5.712;2022-11-13T05:31:43;99854.88;;;12.46;65.79
71795;BME280;59641;45.188;5.712;2022-11-13T05:34:32;99849.69;;;12.45;65.74
71795;BME280;59641;45.188;5.712;2022-11-13T05:44:13;99855.75;;;12.40;65.56
71795;BME280;59641;45.188;5.712;2022-11-13T05:46:45;99850.16;;;12.42;65.68
71795;BME280;59641;45.188;5.712;2022-11-13T05:49:14;99851.41;;;12.39;65.88
71795;BME280;59641;45.188;5.712;2022-11-13T05:51:40;99853.66;;;12.42;65.71
71795;BME280;59641;45.188;5.712;2022-11-13T05:54:15;99855.09;;;12.45;65.62
71795;BME280;59641;45.188;5.712;2022-11-13T05:56:44;99848.44;;;12.47;65.39
71795;BME280;59641;45.188;5.712;2022-11-13T05:59:09;99853.38;;;12.50;65.59
71795;BME280;59641;45.188;5.712;2022-11-13T06:01:37;99850.50;;;12.45;66.01
71795;BME280;59641;45.188;5.712;2022-11-13T06:04:04;99858.84;;;12.44;65.86
71795;BME280;59641;45.188;5.712;2022-11-13T06:06:30;99858.84;;;12.44;65.55
71795;BME280;59641;45.188;5.712;2022-11-13T06:08:58;99856.34;;;12.42;65.66
71795;BME280;59641;45.188;5.712;2022-11-13T06:11:26;99859.03;;;12.42;65.67
71795;BME280;59641;45.188;5.712;2022-11-13T06:13:55;99853.44;;;12.44;65.77
71795;BME280;59641;45.188;5.712;2022-11-13T06:16:27;99865.47;;;12.41;65.81
71795;BME280;59641;45.188;5.712;2022-11-13T06:18:57;99853.66;;;12.42;66.03
71795;BME280;59641;45.188;5.712;2022-11-13T06:21:29;99859.84;;;12.43;65.52
71795;BME280;59641;45.188;5.712;2022-11-13T06:23:57;99854.47;;;12.43;65.73
71795;BME280;59641;45.188;5.712;2022-11-13T06:26:27;99857.41;;;12.41;66.02
71795;BME280;59641;45.188;5.712;2022-11-13T06:32:26;99847.88;;;12.39;65.58
71795;BME280;59641;45.188;5.712;2022-11-13T06:34:52;99845.41;;;12.37;65.98
71795;BME280;59641;45.188;5.712;2022-11-13T06:37:17;99848.13;;;12.37;65.69
71795;BME280;59641;45.188;5.712;2022-11-13T06:39:46;99855.75;;;12.40;65.85
71795;BME280;59641;45.188;5.712;2022-11-13T06:42:11;99853.66;;;12.42;65.90
71795;BME280;59641;45.188;5.712;2022-11-13T06:44:37;99847.22;;;12.43;65.61
71795;BME280;59641;45.188;5.712;2022-11-13T06:47:02;99843.50;;;12.44;65.74
71795;BME280;59641;45.188;5.712;2022-11-13T06:49:28;99839.75;;;12.45;65.37
71795;BME280;59641;45.188;5.712;2022-11-13T06:52:04;99840.56;;;12.46;65.46
71795;BME280;59641;45.188;5.712;2022-11-13T06:54:31;99841.63;;;12.45;65.56
71795;BME280;59641;45.188;5.712;2022-11-13T06:57:32;99836.44;;;12.43;65.54
71795;BME280;59641;45.188;5.712;2022-11-13T07:00:09;99835.41;;;12.44;65.46
71795;BME280;59641;45.188;5.712;2022-11-13T07:02:35;99832.50;;;12.46;65.71
71795;BME280;59641;45.188;5.712;2022-11-13T07:05:03;99834.97;;;12.47;65.87
71795;BME280;59641;45.188;5.712;2022-11-13T07:07:29;99837.81;;;12.52;65.76
71795;BME280;59641;45.188;5.712;2022-11-13T07:09:55;99832.22;;;12.54;65.60
71795;BME280;59641;45.188;5.712;2022-11-13T07:12:20;99830.16;;;12.56;65.34
71795;BME280;59641;45.188;5.712;2022-11-13T07:14:46;99827.44;;;12.56;65.52
71795;BME280;59641;45.188;5.712;2022-11-13T07:17:11;99827.66;;;12.54;65.61
71795;BME280;59641;45.188;5.712;2022-11-13T07:19:36;99832.69;;;12.51;65.93
71795;BME280;59641;45.188;5.712;2022-11-13T07:22:02;99834.53;;;12.50;65.79
71795;BME280;59641;45.188;5.712;2022-11-13T07:24:28;99829.75;;;12.52;65.67
71795;BME280;59641;45.188;5.712;2022-11-13T07:26:53;99824.75;;;12.56;65.71
71795;BME280;59641;45.188;5.712;2022-11-13T07:29:18;99825.13;;;12.60;65.65
71795;BME280;59641;45.188;5.712;2022-11-13T07:31:44;99823.03;;;12.62;65.59
71795;BME280;59641;45.188;5.712;2022-11-13T07:34:09;99824.09;;;12.61;65.85
71795;BME280;59641;45.188;5.712;2022-11-13T07:36:35;99831.72;;;12.64;65.64
71795;BME280;59641;45.188;5.712;2022-11-13T07:39:00;99829.03;;;12.64;65.18
71795;BME280;59641;45.188;5.712;2022-11-13T07:41:25;99824.09;;;12.61;65.36
71795;BME280;59641;45.188;5.712;2022-11-13T07:43:51;99817.72;;;12.55;65.53
71795;BME280;59641;45.188;5.712;2022-11-13T07:46:19;99818.78;;;12.54;65.31
71795;BME280;59641;45.188;5.712;2022-11-13T07:48:45;99827.28;;;12.51;65.64
71795;BME280;59641;45.188;5.712;2022-11-13T07:51:10;99824.22;;;12.47;66.06
71795;BME280;59641;45.188;5.712;2022-11-13T07:53:35;99818.81;;;12.47;66.03
71795;BME280;59641;45.188;5.712;2022-11-13T07:56:03;99814.25;;;12.48;65.83
71795;BME280;59641;45.188;5.712;2022-11-13T07:58:29;99816.94;;;12.48;66.13
71795;BME280;59641;45.188;5.712;2022-11-13T08:01:00;99818.63;;;12.49;66.01
71795;BME280;59641;45.188;5.712;2022-11-13T08:03:27;99818.97;;;12.52;66.37
71795;BME280;59641;45.188;5.712;2022-11-13T08:05:59;99813.19;;;12.55;66.05
71795;BME280;59641;45.188;5.712;2022-11-13T08:08:25;99808.38;;;12.57;65.98
71795;BME280;59641;45.188;5.712;2022-11-13T08:10:51;99810.84;;;12.59;66.23
71795;BME280;59641;45.188;5.712;2022-11-13T08:13:17;99817.44;;;12.63;66.14
71795;BME280;59641;45.188;5.712;2022-11-13T08:15:43;99811.00;;;12.64;66.02
71795;BME280;59641;45.188;5.712;2022-11-13T08:18:08;99806.59;;;12.70;65.83
71795;BME280;59641;45.188;5.712;2022-11-13T08:20:33;99811.53;;;12.73;65.51
71795;BME280;59641;45.188;5.712;2022-11-13T08:23:00;99809.47;;;12.75;65.50
71795;BME280;59641;45.188;5.712;2022-11-13T08:25:27;99813.56;;;12.77;65.39
71795;BME280;59641;45.188;5.712;2022-11-13T08:27:54;99809.81;;;12.78;65.27
71795;BME280;59641;45.188;5.712;2022-11-13T08:30:21;99806.53;;;12.76;65.44
71795;BME280;59641;45.188;5.712;2022-11-13T08:32:47;99809.22;;;12.76;65.47
71795;BME280;59641;45.188;5.712;2022-11-13T08:35:13;99807.94;;;12.79;65.48
71795;BME280;59641;45.188;5.712;2022-11-13T08:37:39;99803.41;;;12.79;65.33
71795;BME280;59641;45.188;5.712;2022-11-13T08:40:05;99791.78;;;12.79;65.43
71795;BME280;59641;45.188;5.712;2022-11-13T08:42:30;99797.78;;;12.81;65.67
71795;BME280;59641;45.188;5.712;2022-11-13T08:44:56;99792.63;;;12.79;65.44
71795;BME280;59641;45.188;5.712;2022-11-13T08:47:21;99802.94;;;12.83;65.31
71795;BME280;59641;45.188;5.712;2022-11-13T08:49:47;99798.59;;;12.82;65.50
71795;BME280;59641;45.188;5.712;2022-11-13T08:52:13;99799.44;;;12.82;65.12
71795;BME280;59641;45.188;5.712;2022-11-13T08:54:40;99795.31;;;12.79;64.90
71795;BME280;59641;45.188;5.712;2022-11-13T08:57:06;99798.84;;;12.80;65.26
71795;BME280;59641;45.188;5.712;2022-11-13T08:59:36;99799.66;;;12.81;65.25
71795;BME280;59641;45.188;5.712;2022-11-13T09:02:05;99807.13;;;12.78;65.51
71795;BME280;59641;45.188;5.712;2022-11-13T09:04:31;99804.81;;;12.82;65.64
71795;BME280;59641;45.188;5.712;2022-11-13T09:06:56;99803.16;;;12.81;65.38
71795;BME280;59641;45.188;5.712;2022-11-13T09:09:22;99797.56;;;12.83;65.42
71795;BME280;59641;45.188;5.712;2022-11-13T09:11:48;99799.44;;;12.82;65.43
71795;BME280;59641;45.188;5.712;2022-11-13T09:14:14;99795.69;;;12.83;65.13
71795;BME280;59641;45.188;5.712;2022-11-13T09:16:40;99799.44;;;12.82;65.34
71795;BME280;59641;45.188;5.712;2022-11-13T09:19:05;99796.97;;;12.81;65.35
71795;BME280;59641;45.188;5.712;2022-11-13T09:21:31;99799.25;;;12.77;65.53
71795;BME280;59641;45.188;5.712;2022-11-13T09:23:57;99793.31;;;12.75;65.67
71795;BME280;59641;45.188;5.712;2022-11-13T09:26:22;99801.00;;;12.71;66.00
71795;BME280;59641;45.188;5.712;2022-11-13T09:28:47;99798.91;;;12.73;65.85
71795;BME280;59641;45.188;5.712;2022-11-13T09:31:13;99799.50;;;12.75;65.64
71795;BME280;59641;45.188;5.712;2022-11-13T09:33:39;99799.25;;;12.77;65.56
71795;BME280;59641;45.188;5.712;2022-11-13T09:36:11;99797.19;;;12.79;65.60
71795;BME280;59641;45.188;5.712;2022-11-13T09:38:37;99795.91;;;12.82;66.03
71795;BME280;59641;45.188;5.712;2022-11-13T09:41:11;99799.19;;;12.84;65.82
71795;BME280;59641;45.188;5.712;2022-11-13T09:46:16;99803.69;;;12.90;65.56
71795;BME280;59641;45.188;5.712;2022-11-13T09:48:52;99802.66;;;12.91;65.95
71795;BME280;59641;45.188;5.712;2022-11-13T09:51:29;99809.44;;;12.93;65.36
71795;BME280;59641;45.188;5.712;2022-11-13T09:53:57;99809.91;;;12.90;65.38
71795;BME280;59641;45.188;5.712;2022-11-13T09:59:31;99823.72;;;12.94;65.57
71795;BME280;59641;45.188;5.712;2022-11-13T10:07:43;99829.66;;;13.03;65.14
71795;BME280;59641;45.188;5.712;2022-11-13T10:12:57;99830.13;;;12.99;65.48
71795;BME280;59641;45.188;5.712;2022-11-13T10:15:24;99814.78;;;13.00;65.36
71795;BME280;59641;45.188;5.712;2022-11-13T10:18:13;99807.50;;;13.00;65.62
71795;BME280;59641;45.188;5.712;2022-11-13T10:21:08;99805.19;;;13.04;65.59
71795;BME280;59641;45.188;5.712;2022-11-13T10:23:34;99800.97;;;13.08;65.73
71795;BME280;59641;45.188;5.712;2022-11-13T10:26:12;99798.47;;;13.13;65.18
71795;BME280;59641;45.188;5.712;2022-11-13T10:28:38;99796.34;;;13.15;65.33
71795;BME280;59641;45.188;5.712;2022-11-13T10:31:09;99789.91;;;13.16;65.51
71795;BME280;59641;45.188;5.712;2022-11-13T10:33:34;99779.28;;;13.21;65.63
71795;BME280;59641;45.188;5.712;2022-11-13T10:41:20;99766.50;;;13.35;65.48
71795;BME280;59641;45.188;5.712;2022-11-13T10:43:54;99764.16;;;13.39;64.94
71795;BME280;59641;45.188;5.712;2022-11-13T10:46:25;99764.75;;;13.41;65.17
71795;BME280;59641;45.188;5.712;2022-11-13T10:48:51;99753.16;;;13.40;65.12
71795;BME280;59641;45.188;5.712;2022-11-13T10:51:24;99752.69;;;13.43;64.74
71795;BME280;59641;45.188;5.712;2022-11-13T10:53:51;99741.69;;;13.45;65.14
71795;BME280;59641;45.188;5.712;2022-11-13T10:56:34;99741.22;;;13.48;64.61
71795;BME280;59641;45.188;5.712;2022-11-13T10:59:09;99742.63;;;13.51;65.17
71795;BME280;59641;45.188;5.712;2022-11-13T11:01:35;99740.53;;;13.53;65.02
71795;BME280;59641;45.188;5.712;2022-11-13T11:04:25;99717.09;;;13.53;64.63
71795;BME280;59641;45.188;5.712;2022-11-13T11:06:54;99714.75;;;13.57;64.80
71795;BME280;59641;45.188;5.712;2022-11-13T11:09:26;99735.25;;;13.58;64.94
71795;BME280;59641;45.188;5.712;2022-11-13T11:12:13;99737.06;;;13.64;64.44
71795;BME280;59641;45.188;5.712;2022-11-13T11:22:32;99692.63;;;13.67;64.35
71795;BME280;59641;45.188;5.712;2022-11-13T11:25:10;99675.03;;;13.64;64.55
71795;BME280;59641;45.188;5.712;2022-11-13T11:27:51;99675.25;;;13.62;64.67
71795;BME280;59641;45.188;5.712;2022-11-13T11:30:24;99684.53;;;13.67;64.42
71795;BME280;59641;45.188;5.712;2022-11-13T11:35:41;99675.97;;;13.70;64.02
71795;BME280;59641;45.188;5.712;2022-11-13T11:38:34;99668.69;;;13.70;64.10
71795;BME280;59641;45.188;5.712;2022-11-13T11:41:11;99659.41;;;13.66;64.18
71795;BME280;59641;45.188;5.712;2022-11-13T11:44:08;99674.09;;;13.70;64.13
71795;BME280;59641;45.188;5.712;2022-11-13T11:46:36;99673.38;;;13.75;64.65
71795;BME280;59641;45.188;5.712;2022-11-13T11:49:02;99672.91;;;13.78;64.29
71795;BME280;59641;45.188;5.712;2022-11-13T11:51:34;99658.13;;;13.80;64.06
71795;BME280;59641;45.188;5.712;2022-11-13T11:56:50;99659.44;;;13.90;63.95
71795;BME280;59641;45.188;5.712;2022-11-13T12:13:31;99645.25;;;13.94;63.87
71795;BME280;59641;45.188;5.712;2022-11-13T12:16:03;99645.13;;;14.01;63.94
71795;BME280;59641;45.188;5.712;2022-11-13T12:18:39;99646.06;;;14.06;63.42
71795;BME280;59641;45.188;5.712;2022-11-13T12:21:53;99639.03;;;14.05;63.53
71795;BME280;59641;45.188;5.712;2022-11-13T12:34:57;99610.38;;;14.28;63.42
71795;BME280;59641;45.188;5.712;2022-11-13T12:37:32;99584.06;;;14.35;62.89
71795;BME280;59641;45.188;5.712;2022-11-13T12:40:41;99579.00;;;14.39;62.27
71795;BME280;59641;45.188;5.712;2022-11-13T12:45:53;99574.03;;;14.47;62.60
71795;BME280;59641;45.188;5.712;2022-11-13T12:50:56;99592.34;;;14.57;62.67
71795;BME280;59641;45.188;5.712;2022-11-13T12:53:26;99590.09;;;14.66;61.96
71795;BME280;59641;45.188;5.712;2022-11-13T12:56:00;99578.56;;;14.70;61.84
71795;BME280;59641;45.188;5.712;2022-11-13T12:58:28;99574.56;;;14.73;61.36
71795;BME280;59641;45.188;5.712;2022-11-13T13:01:13;99568.44;;;14.78;61.43
71795;BME280;59641;45.188;5.712;2022-11-13T13:03:53;99553.03;;;14.78;60.40
71795;BME280;59641;45.188;5.712;2022-11-13T13:06:53;99556.09;;;14.82;61.19
71795;BME280;59641;45.188;5.712;2022-11-13T13:12:32;99561.00;;;14.85;60.50
71795;BME280;59641;45.188;5.712;2022-11-13T13:17:34;99576.00;;;14.93;60.81
71795;BME280;59641;45.188;5.712;2022-11-13T13:20:23;99568.25;;;14.96;61.20
71795;BME280;59641;45.188;5.712;2022-11-13T13:22:55;99550.13;;;14.97;60.76
71795;BME280;59641;45.188;5.712;2022-11-13T13:28:01;99540.38;;;14.96;60.98
71795;BME280;59641;45.188;5.712;2022-11-13T13:30:28;99540.72;;;14.99;61.07
71795;BME280;59641;45.188;5.712;2022-11-13T13:35:49;99548.34;;;15.02;60.86
71795;BME280;59641;45.188;5.712;2022-11-13T13:38:42;99554.91;;;15.06;61.04
71795;BME280;59641;45.188;5.712;2022-11-13T13:46:32;99548.25;;;15.14;60.99
71795;BME280;59641;45.188;5.712;2022-11-13T13:49:20;99552.94;;;15.19;60.82
71795;BME280;59641;45.188;5.712;2022-11-13T13:51:49;99550.53;;;15.22;60.95
71795;BME280;59641;45.188;5.712;2022-11-13T13:54:19;99546.28;;;15.26;60.27
71795;BME280;59641;45.188;5.712;2022-11-13T13:56:46;99550.97;;;15.31;60.73
71795;BME280;59641;45.188;5.712;2022-11-13T13:59:19;99556.94;;;15.33;60.89
71795;BME280;59641;45.188;5.712;2022-11-13T14:01:53;99558.34;;;15.36;60.84
71795;BME280;59641;45.188;5.712;2022-11-13T14:04:22;99548.69;;;15.40;60.84
71795;BME280;59641;45.188;5.712;2022-11-13T14:06:49;99544.38;;;15.44;60.34
71795;BME280;59641;45.188;5.712;2022-11-13T14:09:23;99537.44;;;15.48;60.26
71795;BME280;59641;45.188;5.712;2022-11-13T14:12:06;99535.31;;;15.50;60.76
71795;BME280;59641;45.188;5.712;2022-11-13T14:14:40;99522.09;;;15.53;59.93
71795;BME280;59641;45.188;5.712;2022-11-13T14:17:08;99521.53;;;15.51;59.94
71795;BME280;59641;45.188;5.712;2022-11-13T14:19:35;99519.06;;;15.50;60.38
71795;BME280;59641;45.188;5.712;2022-11-13T14:22:04;99509.66;;;15.52;59.76
71795;BME280;59641;45.188;5.712;2022-11-13T14:24:40;99504.22;;;15.52;60.25
71795;BME280;59641;45.188;5.712;2022-11-13T14:27:14;99503.16;;;15.53;60.35
71795;BME280;59641;45.188;5.712;2022-11-13T14:29:54;99506.69;;;15.54;59.90
71795;BME280;59641;45.188;5.712;2022-11-13T14:32:30;99504.81;;;15.54;60.05
71795;BME280;59641;45.188;5.712;2022-11-13T14:34:59;99493.72;;;15.56;60.42
71795;BME280;59641;45.188;5.712;2022-11-13T14:37:37;99507.25;;;15.56;60.00
71795;BME280;59641;45.188;5.712;2022-11-13T14:40:13;99503.16;;;15.53;60.13
71795;BME280;59641;45.188;5.712;2022-11-13T14:42:46;99502.09;;;15.54;60.48
71795;BME280;59641;45.188;5.712;2022-11-13T14:45:15;99494.22;;;15.53;60.52
71795;BME280;59641;45.188;5.712;2022-11-13T14:47:42;99489.91;;;15.52;60.52
71795;BME280;59641;45.188;5.712;2022-11-13T14:52:54;99501.19;;;15.49;60.46
71795;BME280;59641;45.188;5.712;2022-11-13T14:55:26;99503.09;;;15.48;60.90
71795;BME280;59641;45.188;5.712;2022-11-13T14:57:52;99495.47;;;15.45;60.25
71795;BME280;59641;45.188;5.712;2022-11-13T15:00:24;99493.84;;;15.44;60.88
71795;BME280;59641;45.188;5.712;2022-11-13T15:02:50;99497.59;;;15.43;61.09
71795;BME280;59641;45.188;5.712;2022-11-13T15:05:15;99492.47;;;15.42;61.46
71795;BME280;59641;45.188;5.712;2022-11-13T15:07:41;99495.19;;;15.42;60.81